Airfield :
LOGIN :

Register | Disclaimer

   EN    FR    IT 

 










Legend :    VFR   Marginal VFR   IFR   Intensive IFR   Very Intensive IFR
Visi :
Ceiling :
>= 8 km
>= 3000ft
5 to 8 km
1000 to 3000 ft
1500m to 5 km
500 to 1000 ft
800 to 1500m
200 to 500 ft
< 800m
< 200 ft
Symbols :   Thunderstorms  Fog  Heavy snow  Heavy precipitations  Wind > 20 kt
SIGMETs :     Misc.  Thunderstorms  Icing  Turbulence  Mountain Waves  Volcanic Ashes







- Airport Elevation : 36 ft
- IATA code : LTQ
- Download approach charts


LFAT - Le Touquet

CURRENT METAR :
  • 201800Z AUTO 27005KT 230V300 9999 FEW008 19/17 Q1021 BECMG OVC005

EXPIRED METARs :
  • 201730Z AUTO 25005KT 210V290 9999 FEW008 20/18 Q1021 BECMG OVC005
  • 201700Z AUTO 26008KT 230V290 9999 BKN008 20/17 Q1021 NOSIG
  • 201630Z AUTO 27007KT 230V310 9999 OVC009 20/18 Q1021 NOSIG
  • 201600Z AUTO 26006KT 220V320 9999 BKN009 20/18 Q1021 TEMPO SCT012
  • 201530Z AUTO 27008KT 230V310 9999 FEW014 21/17 Q1021 BECMG OVC005

TAF TAF LFAT
Valid from the 20 at 15:00 until the 21 at 00:00 UTC


201400Z 2015/2024 26007KT 9999 SCT012
BECMG 2017/2020 OVC005
TEMPO 2020/2024 OVC003
ATIS : +33 3 21 06 62 84
No reported NOTAMs for that airfield.



MET'MAP, your aeronautical weather chart ! - Copyright ORBIFLY December 2007 - Disclaimer

ORBIFLY MET'MAP TEAM :

Programming & Development : Alexandra Zaïnal
Concept & Development : Baudouin d'Aumeries
Co-Development & Prog : Marc-Olivier Méhu
Technical & hardware support : Manuel Goepfert

Contact : metmap@orbifly.com




SOURCES & CREDITS :

   NOAA